Capitol Logistics 3261




KTPA
Tampa International Airport
Tampa, Florida
KMIA
Miami International Airport
Miami, Florida

Activity Log

Date Flight Route Aircraft Duration
06/19/2021 CPX3261 GANDY8 SABEE CYY CYY9 SF34 1h 19m
03/23/2021 CPX3261 PIE V35 CURVE ANGRO SF34 1h 00m
04/08/2020 CPX3261 GANDY8 SABEE CYY CYY9 SF34 1h 33m
11/19/2019 CPX3261 GANDY8 SABEE CYY CYY9 SF34 1h 04m
11/03/2019 CPX661 GANDY8 SABEE CYY CYY9 SF34 1h 26m

Route Details

Aircraft Information
Primary: Saab 340AF
Backup: Not Available
Route Data
Distance: 177nm
Duration: 1h 25m
Recm'd Route: GANDY8 SABEE CYY CYY9
Origin Wx: KTPA 020553Z 26007KT 10SM CLR 29/25 A3004 RMK AO2 SLP172 T02940250 10306 20294 58005
Dest. Wx: KMIA 020553Z 00000KT 10SM FEW028 FEW250 29/25 A3006 RMK AO2 SLP179 OCNL LTGIC DSNT E-SE CB DSNT E-SE MOV N 60000 T02890250 10306 20289 58010 $
Notes: